Airport View

Enter AWOS ICAO identifier for current METAR.

ex. KFNL

PATQ 242256Z AUTO 06011KT 10SM OVC004 02/M01 A2964

25 May 2020 00:30

Frequency: 119.925

Phone: 907-633-2012

Other Area AWOS: PABR - PAWI

TAF PABR 242339Z 2500/2524 07011KT P6SM VCFG OVC007 FM250400 09008KT 6SM BR BKN004 OVC007 FM250900 09008KT 1/2SM FZFG OVC004 FM252200 09009KT 6SM BR OVC004